createdAt,value
2022-10-04T00:00:05.414Z,2.00
2022-10-04T00:01:05.395Z,2.10
2022-10-04T00:02:05.439Z,1.70
2022-10-04T00:03:05.444Z,1.90
2022-10-04T00:04:05.363Z,1.60
2022-10-04T00:05:05.356Z,2.00
2022-10-04T00:06:05.345Z,1.90
2022-10-04T00:07:05.327Z,1.70
2022-10-04T00:08:05.344Z,1.70
2022-10-04T00:09:05.305Z,1.70
2022-10-04T00:10:05.305Z,1.60
2022-10-04T00:11:05.279Z,1.60
2022-10-04T00:12:05.277Z,1.70
2022-10-04T00:13:05.286Z,1.70
2022-10-04T00:14:05.249Z,2.10
2022-10-04T00:15:05.237Z,1.70
2022-10-04T00:16:05.261Z,1.70
2022-10-04T00:17:05.239Z,1.90
2022-10-04T00:18:05.208Z,2.20
2022-10-04T00:19:05.197Z,1.80
2022-10-04T00:20:05.178Z,2.20
2022-10-04T00:21:05.168Z,2.10
2022-10-04T00:22:05.157Z,1.90
2022-10-04T00:23:05.167Z,2.10
2022-10-04T00:24:05.141Z,2.20
2022-10-04T00:25:05.127Z,1.90
2022-10-04T00:26:05.109Z,1.60
2022-10-04T00:27:05.107Z,1.80
2022-10-04T00:28:05.201Z,1.70
2022-10-04T00:29:05.079Z,2.20
2022-10-04T00:30:05.158Z,1.60
2022-10-04T00:31:05.100Z,1.70
2022-10-04T00:32:05.048Z,1.80
2022-10-04T00:33:05.030Z,1.70
2022-10-04T00:34:05.021Z,1.80
2022-10-04T00:35:05.018Z,1.60
2022-10-04T00:36:05.019Z,1.50
2022-10-04T00:37:04.991Z,1.80
2022-10-04T00:38:04.976Z,2.00
2022-10-04T00:39:04.981Z,1.80
2022-10-04T00:40:04.971Z,1.80
2022-10-04T00:41:04.940Z,2.00
2022-10-04T00:42:04.929Z,2.00
2022-10-04T00:43:04.918Z,2.20
2022-10-04T00:44:04.909Z,1.90
2022-10-04T00:45:04.899Z,1.90
2022-10-04T00:46:04.970Z,1.90
2022-10-04T00:47:04.870Z,1.80
2022-10-04T00:48:04.885Z,1.70
2022-10-04T00:49:04.849Z,2.50
2022-10-04T00:50:04.840Z,2.00
2022-10-04T00:51:04.832Z,1.90
2022-10-04T00:52:04.811Z,1.90
2022-10-04T00:53:04.810Z,2.10
2022-10-04T00:54:04.810Z,2.10
2022-10-04T00:55:04.783Z,2.30
2022-10-04T00:56:04.791Z,2.00
2022-10-04T00:57:04.758Z,1.80
2022-10-04T00:58:04.749Z,1.80
2022-10-04T00:59:04.738Z,1.90
2022-10-04T01:00:04.732Z,2.30
2022-10-04T01:01:04.808Z,2.10
2022-10-04T01:02:04.775Z,2.30
2022-10-04T01:03:04.690Z,1.80
2022-10-04T01:04:04.681Z,2.00
2022-10-04T01:05:04.672Z,1.60
2022-10-04T01:06:04.659Z,1.80
2022-10-04T01:07:04.672Z,1.80
2022-10-04T01:08:04.638Z,2.20
2022-10-04T01:09:04.621Z,2.00
2022-10-04T01:10:04.611Z,1.70
2022-10-04T01:11:04.602Z,2.00
2022-10-04T01:12:04.591Z,2.00
2022-10-04T01:13:04.595Z,1.80
2022-10-04T01:14:04.566Z,1.80
2022-10-04T01:15:04.554Z,2.50
2022-10-04T01:16:04.595Z,1.60
2022-10-04T01:17:04.553Z,1.80
2022-10-04T01:18:07.431Z,2.10
2022-10-04T01:19:04.515Z,2.00
2022-10-04T01:20:04.505Z,1.80
2022-10-04T01:21:04.490Z,1.70
2022-10-04T01:22:04.472Z,2.00
2022-10-04T01:23:04.493Z,1.60
2022-10-04T01:24:04.444Z,2.20
2022-10-04T01:25:04.446Z,1.90
2022-10-04T01:26:04.426Z,2.00
2022-10-04T01:27:04.544Z,2.00
2022-10-04T01:28:04.510Z,1.60
2022-10-04T01:29:04.410Z,2.10
2022-10-04T01:30:04.382Z,1.70
2022-10-04T01:31:04.412Z,1.90
2022-10-04T01:32:04.365Z,2.10
2022-10-04T01:33:04.374Z,2.30
2022-10-04T01:34:04.334Z,2.20
2022-10-04T01:35:04.351Z,2.30
2022-10-04T01:36:04.314Z,2.20
2022-10-04T01:37:04.311Z,2.20
2022-10-04T01:38:04.316Z,2.10
2022-10-04T01:39:04.286Z,2.20
2022-10-04T01:40:04.272Z,2.10
2022-10-04T01:41:04.271Z,1.90
2022-10-04T01:42:04.245Z,2.10
2022-10-04T01:43:04.269Z,2.40
2022-10-04T01:44:04.224Z,2.30
2022-10-04T01:45:04.216Z,2.30
2022-10-04T01:46:04.242Z,2.50
2022-10-04T01:47:04.197Z,2.20
2022-10-04T01:48:04.202Z,2.10
2022-10-04T01:49:04.192Z,2.30
2022-10-04T01:50:04.163Z,2.50
2022-10-04T01:51:04.157Z,2.60
2022-10-04T01:52:04.143Z,2.20
2022-10-04T01:53:04.125Z,2.40
2022-10-04T01:54:04.136Z,2.10
2022-10-04T01:55:04.106Z,2.10
2022-10-04T01:56:04.086Z,2.60
2022-10-04T01:57:04.085Z,2.60
2022-10-04T01:58:04.067Z,2.60
2022-10-04T01:59:04.089Z,2.30
2022-10-04T02:00:04.056Z,2.20
2022-10-04T02:01:04.093Z,2.20
2022-10-04T02:02:04.017Z,2.60
2022-10-04T02:03:04.018Z,2.10
2022-10-04T02:04:03.998Z,2.40
2022-10-04T02:05:04.049Z,2.40
2022-10-04T02:06:03.976Z,2.50
2022-10-04T02:07:03.976Z,2.20
2022-10-04T02:08:03.956Z,2.40
2022-10-04T02:09:03.968Z,2.50
2022-10-04T02:10:03.926Z,2.50
2022-10-04T02:11:03.918Z,2.70
2022-10-04T02:12:03.906Z,2.00
2022-10-04T02:13:03.897Z,2.70
2022-10-04T02:14:03.894Z,2.60
2022-10-04T02:15:03.897Z,2.20
2022-10-04T02:16:03.931Z,2.40
2022-10-04T02:17:03.880Z,2.20
2022-10-04T02:18:03.839Z,2.30
2022-10-04T02:19:03.839Z,2.60
2022-10-04T02:20:03.819Z,2.70
2022-10-04T02:21:03.809Z,2.30
2022-10-04T02:22:03.817Z,2.20
2022-10-04T02:23:03.790Z,2.60
2022-10-04T02:24:03.768Z,2.90
2022-10-04T02:25:03.788Z,2.20
2022-10-04T02:26:03.750Z,2.60
2022-10-04T02:27:03.765Z,2.90
2022-10-04T02:28:03.789Z,2.50
2022-10-04T02:29:03.727Z,2.30
2022-10-04T02:30:03.702Z,2.30
2022-10-04T02:31:03.724Z,2.00
2022-10-04T02:32:03.709Z,2.40
2022-10-04T02:33:03.679Z,2.30
2022-10-04T02:34:03.659Z,2.30
2022-10-04T02:35:03.670Z,2.50
2022-10-04T02:36:03.638Z,2.30
2022-10-04T02:37:03.661Z,2.30
2022-10-04T02:38:03.611Z,2.70
2022-10-04T02:39:03.618Z,2.60
2022-10-04T02:40:03.601Z,2.50
2022-10-04T02:41:03.588Z,3.00
2022-10-04T02:42:03.589Z,2.30
2022-10-04T02:43:03.561Z,2.80
2022-10-04T02:44:03.541Z,2.60
2022-10-04T02:45:03.541Z,2.80
2022-10-04T02:46:03.578Z,2.80
2022-10-04T02:47:03.511Z,2.90
2022-10-04T02:48:03.521Z,2.90
2022-10-04T02:49:03.491Z,2.90
2022-10-04T02:50:03.479Z,2.40
2022-10-04T02:51:03.470Z,2.50
2022-10-04T02:52:03.453Z,2.70
2022-10-04T02:53:03.474Z,2.40
2022-10-04T02:54:03.959Z,2.60
2022-10-04T02:55:03.421Z,2.80
2022-10-04T02:56:03.412Z,2.90
2022-10-04T02:57:03.402Z,2.40
2022-10-04T02:58:03.410Z,2.80
2022-10-04T02:59:03.380Z,3.10
2022-10-04T03:00:03.369Z,2.90
2022-10-04T03:01:03.427Z,2.60
2022-10-04T03:02:03.411Z,2.80
2022-10-04T03:03:03.361Z,2.40
2022-10-04T03:04:03.313Z,2.90
2022-10-04T03:05:03.303Z,2.50
2022-10-04T03:06:03.301Z,2.60
2022-10-04T03:07:03.291Z,2.70
2022-10-04T03:08:03.294Z,2.50
2022-10-04T03:09:03.264Z,2.50
2022-10-04T03:10:03.250Z,2.70
2022-10-04T03:11:03.241Z,2.90
2022-10-04T03:12:03.231Z,2.60
2022-10-04T03:13:03.242Z,2.80
2022-10-04T03:14:03.203Z,2.50
2022-10-04T03:15:03.202Z,2.80
2022-10-04T03:16:03.267Z,2.70
2022-10-04T03:17:03.181Z,2.70
2022-10-04T03:18:03.153Z,2.70
2022-10-04T03:19:03.172Z,3.30
2022-10-04T03:20:03.135Z,3.20
2022-10-04T03:21:03.132Z,2.70
2022-10-04T03:22:03.115Z,2.80
2022-10-04T03:23:03.110Z,2.90
2022-10-04T03:24:03.112Z,2.90
2022-10-04T03:25:03.082Z,2.80
2022-10-04T03:26:03.072Z,2.90
2022-10-04T03:27:03.060Z,2.80
2022-10-04T03:28:03.210Z,2.70
2022-10-04T03:29:03.036Z,3.40
2022-10-04T03:30:03.053Z,2.80
2022-10-04T03:31:03.092Z,2.80
2022-10-04T03:32:03.001Z,3.00
2022-10-04T03:33:02.995Z,3.10
2022-10-04T03:34:02.982Z,2.70
2022-10-04T03:35:03.014Z,2.90
2022-10-04T03:36:02.957Z,3.30
2022-10-04T03:37:02.955Z,2.90
2022-10-04T03:38:02.934Z,2.80
2022-10-04T03:39:02.926Z,3.40
2022-10-04T03:40:02.913Z,3.10
2022-10-04T03:41:02.926Z,3.30
2022-10-04T03:42:02.892Z,2.90
2022-10-04T03:43:02.882Z,2.60
2022-10-04T03:44:05.143Z,3.00
2022-10-04T03:45:02.857Z,2.60
2022-10-04T03:46:02.898Z,3.10
2022-10-04T03:47:02.835Z,2.80
2022-10-04T03:48:02.843Z,2.60
2022-10-04T03:49:02.814Z,2.90
2022-10-04T03:50:02.796Z,3.20
2022-10-04T03:51:02.805Z,3.30
2022-10-04T03:52:02.777Z,3.10
2022-10-04T03:53:02.767Z,2.70
2022-10-04T03:54:02.784Z,3.10
2022-10-04T03:55:02.742Z,3.10
2022-10-04T03:56:04.507Z,2.50
2022-10-04T03:57:02.726Z,3.10
2022-10-04T03:58:02.707Z,3.00
2022-10-04T03:59:02.703Z,3.00
2022-10-04T04:00:02.708Z,3.00
2022-10-04T04:01:02.734Z,2.70
2022-10-04T04:02:02.710Z,3.40
2022-10-04T04:03:02.655Z,3.00
2022-10-04T04:04:02.647Z,2.90
2022-10-04T04:05:02.668Z,3.20
2022-10-04T04:06:02.618Z,2.90
2022-10-04T04:07:02.609Z,3.20
2022-10-04T04:08:02.599Z,3.00
2022-10-04T04:09:02.586Z,2.90
2022-10-04T04:10:02.578Z,3.00
2022-10-04T04:11:02.588Z,3.10
2022-10-04T04:12:02.548Z,3.30
2022-10-04T04:13:02.566Z,3.50
2022-10-04T04:14:02.527Z,3.20
2022-10-04T04:15:02.519Z,3.10
2022-10-04T04:16:02.552Z,3.30
2022-10-04T04:17:02.500Z,3.10
2022-10-04T04:18:02.487Z,3.20
2022-10-04T04:19:02.496Z,3.30
2022-10-04T04:20:07.176Z,3.40
2022-10-04T04:21:03.448Z,3.60
2022-10-04T04:22:02.440Z,3.00
2022-10-04T04:23:02.430Z,3.30
2022-10-04T04:24:02.440Z,3.40
2022-10-04T04:25:02.408Z,3.50
2022-10-04T04:26:02.411Z,3.50
2022-10-04T04:27:02.379Z,3.30
2022-10-04T04:28:02.410Z,3.20
2022-10-04T04:29:02.380Z,3.50
2022-10-04T04:30:02.348Z,3.60
2022-10-04T04:31:02.357Z,3.40
2022-10-04T04:32:02.350Z,3.20
2022-10-04T04:33:02.310Z,3.40
2022-10-04T04:34:02.299Z,3.50
2022-10-04T04:35:02.339Z,3.50
2022-10-04T04:36:02.299Z,2.90
2022-10-04T04:37:02.262Z,3.30
2022-10-04T04:38:02.259Z,3.30
2022-10-04T04:39:10.033Z,3.30
2022-10-04T04:40:02.233Z,3.80
2022-10-04T04:41:02.245Z,3.40
2022-10-04T04:42:02.214Z,3.10
2022-10-04T04:43:02.194Z,3.20
2022-10-04T04:44:02.193Z,3.00
2022-10-04T04:45:02.174Z,3.10
2022-10-04T04:46:25.963Z,3.40
2022-10-04T04:47:03.145Z,3.20
2022-10-04T04:48:02.144Z,3.30
2022-10-04T04:49:02.134Z,2.80
2022-10-04T04:50:02.120Z,3.10
2022-10-04T04:51:02.133Z,3.20
2022-10-04T04:52:02.094Z,3.10
2022-10-04T04:53:02.084Z,3.40
2022-10-04T04:54:02.074Z,3.30
2022-10-04T04:55:02.056Z,3.30
2022-10-04T04:56:04.651Z,3.00
2022-10-04T04:57:02.049Z,3.40
2022-10-04T04:58:02.045Z,3.40
2022-10-04T04:59:02.014Z,3.20
2022-10-04T05:00:02.010Z,3.60
2022-10-04T05:01:02.078Z,3.10
2022-10-04T05:02:02.033Z,3.50
2022-10-04T05:03:01.974Z,3.60
2022-10-04T05:04:01.956Z,3.10
2022-10-04T05:05:01.945Z,3.60
2022-10-04T05:06:01.946Z,2.70
2022-10-04T05:07:01.946Z,3.40
2022-10-04T05:08:01.915Z,3.10
2022-10-04T05:09:01.907Z,3.10
2022-10-04T05:10:01.890Z,3.00
2022-10-04T05:11:01.896Z,3.30
2022-10-04T05:12:01.867Z,3.80
2022-10-04T05:13:01.858Z,3.60
2022-10-04T05:14:01.848Z,3.10
2022-10-04T05:15:01.835Z,2.90
2022-10-04T05:16:01.909Z,3.10
2022-10-04T05:17:01.815Z,3.50
2022-10-04T05:18:01.797Z,3.60
2022-10-04T05:19:01.787Z,3.30
2022-10-04T05:20:01.776Z,3.00
2022-10-04T05:21:01.768Z,2.80
2022-10-04T05:22:01.776Z,3.50
2022-10-04T05:23:01.769Z,3.20
2022-10-04T05:24:01.736Z,3.00
2022-10-04T05:25:01.728Z,3.20
2022-10-04T05:26:01.717Z,3.10
2022-10-04T05:27:01.699Z,3.40
2022-10-04T05:28:01.722Z,3.20
2022-10-04T05:29:01.706Z,3.30
2022-10-04T05:30:01.677Z,3.50
2022-10-04T05:31:01.649Z,3.40
2022-10-04T05:32:01.739Z,3.10
2022-10-04T05:33:01.627Z,3.30
2022-10-04T05:34:01.649Z,3.80
2022-10-04T05:35:01.612Z,3.00
2022-10-04T05:36:01.595Z,4.00
2022-10-04T05:37:01.589Z,3.30
2022-10-04T05:38:01.577Z,3.00
2022-10-04T05:39:01.560Z,3.00
2022-10-04T05:40:01.586Z,3.10
2022-10-04T05:41:01.538Z,3.30
2022-10-04T05:42:01.541Z,3.30
2022-10-04T05:43:01.509Z,3.20
2022-10-04T05:44:01.506Z,3.10
2022-10-04T05:45:01.490Z,3.30
2022-10-04T05:46:01.554Z,3.30
2022-10-04T05:47:01.468Z,3.00
2022-10-04T05:48:01.458Z,3.60
2022-10-04T05:49:01.449Z,3.40
2022-10-04T05:50:01.430Z,3.50
2022-10-04T05:51:01.441Z,3.40
2022-10-04T05:52:01.418Z,3.20
2022-10-04T05:53:01.423Z,3.20
2022-10-04T05:54:01.391Z,3.30
2022-10-04T05:55:01.380Z,3.00
2022-10-04T05:56:01.400Z,3.00
2022-10-04T05:57:01.360Z,3.20
2022-10-04T05:58:01.347Z,3.00
2022-10-04T05:59:01.329Z,3.20
2022-10-04T06:00:04.324Z,3.40
2022-10-04T06:01:01.441Z,2.90
2022-10-04T06:02:01.385Z,3.20
2022-10-04T06:03:01.289Z,3.60
2022-10-04T06:04:01.277Z,3.40
2022-10-04T06:05:01.260Z,3.00
2022-10-04T06:06:01.259Z,3.50
2022-10-04T06:07:01.239Z,3.20
2022-10-04T06:08:01.258Z,3.10
2022-10-04T06:09:01.219Z,3.50
2022-10-04T06:10:01.211Z,3.40
2022-10-04T06:11:01.201Z,3.20
2022-10-04T06:12:01.229Z,3.50
2022-10-04T06:13:01.169Z,3.60
2022-10-04T06:14:01.161Z,3.30
2022-10-04T06:15:01.196Z,3.60
2022-10-04T06:16:01.150Z,3.30
2022-10-04T06:17:01.188Z,3.50
2022-10-04T06:18:01.121Z,3.30
2022-10-04T06:19:01.116Z,2.80
2022-10-04T06:20:01.109Z,3.00
2022-10-04T06:21:01.113Z,3.10
2022-10-04T06:22:01.083Z,3.30
2022-10-04T06:23:01.061Z,3.20
2022-10-04T06:24:01.059Z,3.10
2022-10-04T06:25:01.041Z,3.00
2022-10-04T06:26:01.032Z,3.10
2022-10-04T06:27:01.042Z,3.00
2022-10-04T06:28:01.036Z,3.10
2022-10-04T06:29:00.999Z,2.80
2022-10-04T06:30:00.983Z,3.10
2022-10-04T06:31:01.022Z,3.30
2022-10-04T06:32:00.963Z,3.10
2022-10-04T06:33:00.952Z,2.50
2022-10-04T06:34:00.944Z,3.00
2022-10-04T06:35:00.925Z,3.00
2022-10-04T06:36:00.922Z,3.10
2022-10-04T06:37:00.931Z,2.90
2022-10-04T06:38:00.902Z,3.50
2022-10-04T06:39:04.030Z,3.50
2022-10-04T06:40:00.871Z,3.10
2022-10-04T06:41:00.864Z,3.20
2022-10-04T06:42:00.852Z,2.90
2022-10-04T06:43:00.877Z,2.90
2022-10-04T06:44:00.837Z,3.20
2022-10-04T06:45:00.814Z,3.50
2022-10-04T06:46:00.878Z,3.60
2022-10-04T06:47:00.791Z,3.40
2022-10-04T06:48:00.783Z,2.90
2022-10-04T06:49:00.764Z,3.30
2022-10-04T06:50:00.762Z,3.00
2022-10-04T06:51:00.764Z,2.80
2022-10-04T06:52:00.736Z,3.10
2022-10-04T06:53:00.731Z,3.60
2022-10-04T06:54:00.713Z,3.50
2022-10-04T06:55:00.706Z,2.90
2022-10-04T06:56:00.724Z,3.00
2022-10-04T06:57:00.683Z,3.20
2022-10-04T06:58:00.672Z,3.90
2022-10-04T06:59:00.656Z,3.50
2022-10-04T07:00:00.654Z,2.90
2022-10-04T07:01:00.680Z,3.00
2022-10-04T07:02:00.687Z,2.90
2022-10-04T07:03:00.605Z,3.30
2022-10-04T07:04:00.605Z,3.20
2022-10-04T07:05:08.485Z,2.80
2022-10-04T07:06:01.582Z,3.40
2022-10-04T07:07:00.585Z,3.30
2022-10-04T07:08:00.557Z,3.10
2022-10-04T07:09:00.541Z,3.30
2022-10-04T07:10:00.537Z,3.00
2022-10-04T07:11:00.546Z,3.10
2022-10-04T07:12:00.514Z,2.80
2022-10-04T07:13:00.497Z,2.90
2022-10-04T07:14:00.493Z,3.10
2022-10-04T07:15:00.474Z,3.60
2022-10-04T07:16:00.573Z,3.60
2022-10-04T07:17:00.455Z,3.00
2022-10-04T07:18:00.455Z,3.20
2022-10-04T07:19:00.425Z,3.00
2022-10-04T07:20:00.427Z,3.00
2022-10-04T07:21:00.405Z,3.20
2022-10-04T07:22:00.416Z,3.10
2022-10-04T07:23:00.386Z,3.10
2022-10-04T07:24:00.375Z,3.00
2022-10-04T07:25:00.363Z,3.30
2022-10-04T07:26:00.347Z,3.00
2022-10-04T07:27:00.365Z,3.00
2022-10-04T07:28:00.375Z,2.80
2022-10-04T07:29:00.317Z,2.60
2022-10-04T07:30:00.306Z,3.00
2022-10-04T07:31:00.350Z,2.70
2022-10-04T07:32:00.308Z,2.90
2022-10-04T07:33:00.268Z,2.90
2022-10-04T07:34:00.266Z,3.40
2022-10-04T07:35:00.261Z,2.90
2022-10-04T07:36:00.247Z,3.40
2022-10-04T07:37:00.246Z,2.90
2022-10-04T07:38:00.226Z,3.10
2022-10-04T07:39:00.224Z,2.90
2022-10-04T07:40:00.211Z,2.90
2022-10-04T07:41:00.189Z,2.80
2022-10-04T07:42:00.179Z,2.90
2022-10-04T07:43:00.190Z,2.60
2022-10-04T07:44:00.158Z,3.00
2022-10-04T07:45:00.137Z,3.20
2022-10-04T07:46:00.202Z,3.30
2022-10-04T07:47:00.157Z,2.80
2022-10-04T07:48:00.110Z,2.70
2022-10-04T07:49:00.092Z,2.60
2022-10-04T07:50:00.100Z,2.70
2022-10-04T07:51:00.092Z,3.00
2022-10-04T07:52:00.115Z,3.00
2022-10-04T07:53:00.050Z,2.70
2022-10-04T07:54:00.041Z,2.90
2022-10-04T07:55:00.028Z,3.00
2022-10-04T07:56:00.022Z,2.80
2022-10-04T07:57:00.001Z,2.80
2022-10-04T07:58:00.020Z,2.90
2022-10-04T07:58:59.982Z,2.40
2022-10-04T07:59:59.971Z,2.90
2022-10-04T08:00:59.962Z,2.90
2022-10-04T08:02:00.009Z,2.70
2022-10-04T08:03:00.085Z,2.60
2022-10-04T08:03:59.950Z,3.00
2022-10-04T08:04:59.940Z,2.50
2022-10-04T08:05:59.913Z,3.00
2022-10-04T08:06:59.897Z,2.50
2022-10-04T08:07:59.890Z,2.70
2022-10-04T08:08:59.870Z,2.70
2022-10-04T08:09:59.890Z,2.70
2022-10-04T08:10:59.859Z,2.60
2022-10-04T08:11:59.844Z,2.90
2022-10-04T08:12:59.834Z,2.80
2022-10-04T08:13:59.831Z,2.70
2022-10-04T08:14:59.823Z,2.70
2022-10-04T08:15:59.830Z,2.60
2022-10-04T08:16:59.781Z,2.60
2022-10-04T08:17:59.785Z,2.80
2022-10-04T08:18:59.767Z,2.80
2022-10-04T08:19:59.775Z,2.90
2022-10-04T08:20:59.741Z,3.00
2022-10-04T08:21:59.733Z,3.10
2022-10-04T08:22:59.725Z,2.70
2022-10-04T08:23:59.703Z,2.40
2022-10-04T08:24:59.693Z,3.40
2022-10-04T08:25:59.713Z,2.50
2022-10-04T08:26:59.687Z,2.90
2022-10-04T08:27:59.706Z,2.70
2022-10-04T08:28:59.660Z,2.50
2022-10-04T08:29:59.635Z,2.80
2022-10-04T08:30:59.678Z,2.90
2022-10-04T08:32:04.244Z,2.80
2022-10-04T08:33:00.613Z,2.90
2022-10-04T08:33:59.607Z,2.30
2022-10-04T08:34:59.591Z,2.60
2022-10-04T08:35:59.594Z,2.70
2022-10-04T08:36:59.577Z,2.60
2022-10-04T08:37:59.554Z,2.30
2022-10-04T08:38:59.565Z,3.20
2022-10-04T08:39:59.534Z,2.70
2022-10-04T08:40:59.525Z,2.10
2022-10-04T08:41:59.515Z,2.80
2022-10-04T08:42:59.526Z,2.60
2022-10-04T08:43:59.494Z,2.50
2022-10-04T08:44:59.479Z,2.70
2022-10-04T08:45:59.542Z,2.10
2022-10-04T08:46:59.456Z,2.50
2022-10-04T08:47:59.447Z,2.40
2022-10-04T08:48:59.467Z,2.40
2022-10-04T08:49:59.416Z,2.20
2022-10-04T08:50:59.417Z,2.20
2022-10-04T08:51:59.396Z,2.30
2022-10-04T08:52:59.394Z,2.60
2022-10-04T08:53:59.375Z,2.30
2022-10-04T08:54:59.390Z,2.70
2022-10-04T08:55:59.350Z,2.30
2022-10-04T08:56:59.366Z,2.80
2022-10-04T08:57:59.328Z,2.20
2022-10-04T08:58:59.329Z,2.10
2022-10-04T08:59:59.314Z,2.30
2022-10-04T09:00:59.305Z,2.00
2022-10-04T09:01:59.298Z,2.30
2022-10-04T09:02:59.374Z,1.90
2022-10-04T09:03:59.259Z,2.00
2022-10-04T09:04:59.257Z,1.60
2022-10-04T09:05:59.248Z,1.70
2022-10-04T09:06:59.239Z,2.00
2022-10-04T09:07:59.255Z,1.60
2022-10-04T09:08:59.209Z,1.70
2022-10-04T09:09:59.199Z,1.90
2022-10-04T09:10:59.193Z,2.20
2022-10-04T09:11:59.170Z,1.70
2022-10-04T09:12:59.168Z,2.00
2022-10-04T09:13:59.182Z,1.40
2022-10-04T09:14:59.141Z,1.60
2022-10-04T09:15:59.204Z,1.80
2022-10-04T09:16:59.126Z,1.70
2022-10-04T09:17:59.116Z,1.80
2022-10-04T09:18:59.119Z,2.10
2022-10-04T09:20:09.272Z,1.70
2022-10-04T09:21:00.100Z,1.70
2022-10-04T09:21:59.061Z,1.70
2022-10-04T09:23:02.796Z,1.80
2022-10-04T09:24:00.072Z,1.70
2022-10-04T09:24:59.031Z,1.60
2022-10-04T09:25:59.020Z,1.40
2022-10-04T09:26:59.011Z,1.60
2022-10-04T09:27:59.041Z,1.60
2022-10-04T09:29:03.869Z,1.40
2022-10-04T09:30:00.002Z,1.70
2022-10-04T09:30:58.994Z,1.60
2022-10-04T09:31:58.951Z,1.40
2022-10-04T09:32:58.942Z,1.60
2022-10-04T09:33:58.924Z,1.40
2022-10-04T09:34:58.963Z,1.60
2022-10-04T09:35:58.903Z,1.40
2022-10-04T09:36:58.893Z,1.60
2022-10-04T09:37:58.882Z,1.70
2022-10-04T09:39:25.255Z,1.70
2022-10-04T09:39:59.884Z,1.60
2022-10-04T09:40:58.852Z,1.60
2022-10-04T09:41:58.840Z,1.60
2022-10-04T09:42:58.841Z,1.30
2022-10-04T09:43:58.822Z,1.20
2022-10-04T09:44:58.806Z,1.50
2022-10-04T09:45:58.829Z,1.60
2022-10-04T09:46:58.820Z,1.30
2022-10-04T09:47:58.773Z,1.30
2022-10-04T09:48:58.774Z,1.60
2022-10-04T09:49:58.746Z,1.50
2022-10-04T09:50:58.775Z,1.50
2022-10-04T09:51:58.726Z,1.50
2022-10-04T09:52:58.716Z,1.50
2022-10-04T09:53:58.724Z,1.20
2022-10-04T09:54:58.696Z,1.50
2022-10-04T09:55:58.690Z,1.40
2022-10-04T09:56:58.699Z,1.20
2022-10-04T09:57:58.668Z,1.50
2022-10-04T09:58:58.658Z,1.30
2022-10-04T09:59:58.646Z,1.30
2022-10-04T10:00:58.629Z,1.70
2022-10-04T10:01:58.696Z,1.50
2022-10-04T10:02:58.654Z,1.60
2022-10-04T10:03:58.596Z,1.20
2022-10-04T10:04:58.586Z,1.40
2022-10-04T10:05:58.568Z,1.30
2022-10-04T10:06:58.566Z,1.30
2022-10-04T10:07:58.569Z,1.40
2022-10-04T10:08:58.542Z,1.20
2022-10-04T10:09:58.529Z,1.30
2022-10-04T10:10:58.520Z,1.20
2022-10-04T10:11:58.510Z,1.40
2022-10-04T10:12:58.519Z,1.10
2022-10-04T10:13:58.482Z,1.20
2022-10-04T10:14:58.474Z,1.20
2022-10-04T10:15:58.534Z,1.10
2022-10-04T10:16:58.451Z,1.00
2022-10-04T10:17:58.478Z,1.10
2022-10-04T10:18:58.454Z,1.40
2022-10-04T10:19:58.416Z,1.30
2022-10-04T10:20:58.403Z,1.10
2022-10-04T10:21:58.400Z,1.30
2022-10-04T10:22:58.390Z,1.60
2022-10-04T10:23:58.374Z,1.30
2022-10-04T10:24:58.670Z,1.80
2022-10-04T10:25:58.355Z,1.30
2022-10-04T10:26:58.343Z,1.40
2022-10-04T10:27:58.357Z,1.30
2022-10-04T10:28:58.315Z,1.40
2022-10-04T10:29:58.306Z,1.60
2022-10-04T10:30:58.363Z,1.60
2022-10-04T10:31:58.286Z,1.30
2022-10-04T10:32:58.290Z,1.20
2022-10-04T10:33:58.256Z,1.60
2022-10-04T10:34:58.255Z,1.40
2022-10-04T10:35:58.238Z,1.30
2022-10-04T10:36:58.259Z,1.10
2022-10-04T10:38:02.321Z,1.50
2022-10-04T10:38:59.207Z,1.30
2022-10-04T10:40:05.980Z,1.10
2022-10-04T10:40:58.203Z,1.30
2022-10-04T10:42:00.002Z,1.40
2022-10-04T10:42:58.180Z,1.40
2022-10-04T10:43:58.161Z,1.60
2022-10-04T10:44:58.154Z,1.20
2022-10-04T10:45:58.163Z,1.50
2022-10-04T10:46:58.576Z,1.70
2022-10-04T10:47:58.143Z,1.40
2022-10-04T10:48:58.135Z,1.30
2022-10-04T10:49:58.123Z,1.40
2022-10-04T10:50:58.124Z,1.40
2022-10-04T10:51:58.075Z,1.60
2022-10-04T10:52:58.064Z,1.50
2022-10-04T10:53:58.075Z,1.00
2022-10-04T10:54:58.052Z,1.30
2022-10-04T10:55:58.330Z,1.30
2022-10-04T10:56:58.037Z,1.50
2022-10-04T10:57:58.006Z,1.30
2022-10-04T10:58:57.996Z,0.90
2022-10-04T10:59:57.996Z,1.30
2022-10-04T11:00:58.014Z,1.20
2022-10-04T11:01:58.928Z,1.30
2022-10-04T11:03:12.306Z,1.30
2022-10-04T11:03:59.194Z,1.40
2022-10-04T11:04:58.581Z,1.10
2022-10-04T11:05:58.274Z,1.30
2022-10-04T11:06:58.064Z,1.50
2022-10-04T11:07:58.132Z,1.30
2022-10-04T11:08:58.149Z,1.40
2022-10-04T11:09:59.083Z,1.20
2022-10-04T11:10:59.139Z,1.20
2022-10-04T11:11:58.279Z,1.20
2022-10-04T11:12:58.075Z,1.30
2022-10-04T11:13:58.211Z,1.30
2022-10-04T11:14:58.076Z,1.20
2022-10-04T11:15:59.154Z,1.50
2022-10-04T11:16:58.073Z,1.50
2022-10-04T11:17:58.260Z,1.20
2022-10-04T11:18:57.993Z,1.20
2022-10-04T11:19:58.188Z,1.20
2022-10-04T11:20:58.089Z,1.10
2022-10-04T11:21:58.045Z,1.50
2022-10-04T11:22:58.067Z,1.20
2022-10-04T11:23:59.059Z,1.00
2022-10-04T11:24:57.997Z,1.40
2022-10-04T11:25:58.108Z,1.00
2022-10-04T11:26:58.985Z,1.20
2022-10-04T11:27:57.922Z,1.30
2022-10-04T11:28:58.148Z,1.10
2022-10-04T11:29:57.821Z,1.20
2022-10-04T11:30:58.039Z,1.50
2022-10-04T11:31:57.933Z,1.20
2022-10-04T11:32:57.905Z,1.60
2022-10-04T11:33:58.033Z,1.60
2022-10-04T11:34:57.901Z,1.30
2022-10-04T11:35:59.029Z,1.40
2022-10-04T11:36:58.721Z,1.00
2022-10-04T11:37:57.941Z,1.20
2022-10-04T11:38:58.860Z,1.50
2022-10-04T11:39:57.985Z,1.10
2022-10-04T11:40:58.865Z,1.20
2022-10-04T11:41:57.689Z,1.10
2022-10-04T11:42:58.898Z,1.20
2022-10-04T11:43:57.927Z,1.30
2022-10-04T11:44:57.856Z,1.30
2022-10-04T11:45:57.494Z,1.30
2022-10-04T11:46:57.565Z,1.20
2022-10-04T11:47:57.467Z,1.50
2022-10-04T11:48:57.458Z,1.20
2022-10-04T11:49:57.448Z,1.50
2022-10-04T11:50:57.425Z,1.40
2022-10-04T11:52:01.939Z,1.40
2022-10-04T11:52:58.428Z,1.20
2022-10-04T11:53:57.425Z,1.40
2022-10-04T11:54:57.378Z,1.20
2022-10-04T11:55:57.404Z,1.50
2022-10-04T11:56:57.387Z,1.30
2022-10-04T11:57:57.369Z,1.20
2022-10-04T11:58:57.368Z,1.30
2022-10-04T11:59:57.340Z,1.50
2022-10-04T12:00:57.319Z,1.10
2022-10-04T12:01:57.318Z,1.20
2022-10-04T12:02:57.320Z,1.20
2022-10-04T12:03:57.415Z,1.20
2022-10-04T12:04:57.353Z,1.40
2022-10-04T12:05:57.271Z,1.30
2022-10-04T12:06:57.252Z,1.40
2022-10-04T12:07:57.252Z,1.30
2022-10-04T12:08:57.258Z,1.30
2022-10-04T12:10:00.808Z,1.40
2022-10-04T12:10:57.222Z,1.20
2022-10-04T12:11:57.202Z,1.80
2022-10-04T12:12:57.193Z,1.20
2022-10-04T12:13:57.211Z,1.30
2022-10-04T12:14:57.173Z,1.40
2022-10-04T12:15:57.194Z,1.20
2022-10-04T12:16:57.144Z,1.30
2022-10-04T12:17:57.146Z,1.20
2022-10-04T12:18:57.152Z,1.10
2022-10-04T12:19:57.115Z,1.10
2022-10-04T12:20:57.106Z,1.20
2022-10-04T12:21:57.097Z,1.00
2022-10-04T12:22:57.086Z,1.00
2022-10-04T12:23:57.096Z,1.40
2022-10-04T12:24:57.062Z,1.30
2022-10-04T12:25:57.060Z,1.50
2022-10-04T12:26:57.050Z,1.30
2022-10-04T12:27:57.069Z,1.20
2022-10-04T12:28:57.047Z,1.40
2022-10-04T12:29:57.016Z,1.10
2022-10-04T12:30:56.996Z,1.30
2022-10-04T12:31:57.009Z,0.90
2022-10-04T12:32:58.180Z,1.00
2022-10-04T12:33:56.963Z,1.20
2022-10-04T12:34:56.982Z,1.00
2022-10-04T12:35:56.983Z,1.30
2022-10-04T12:36:56.932Z,0.80
2022-10-04T12:37:56.922Z,1.30
2022-10-04T12:38:56.915Z,1.30
2022-10-04T12:39:56.902Z,1.00
2022-10-04T12:40:56.904Z,1.00
2022-10-04T12:41:56.883Z,1.10
2022-10-04T12:42:56.865Z,1.00
2022-10-04T12:43:56.862Z,1.20
2022-10-04T12:44:56.844Z,1.10
2022-10-04T12:45:56.951Z,1.30
2022-10-04T12:46:56.826Z,1.10
2022-10-04T12:47:56.817Z,1.00
2022-10-04T12:48:56.806Z,0.90
2022-10-04T12:49:56.817Z,1.20
2022-10-04T12:50:56.806Z,1.10
2022-10-04T12:51:56.776Z,0.90
2022-10-04T12:52:56.759Z,0.90
2022-10-04T12:53:58.856Z,1.00
2022-10-04T12:54:56.738Z,0.90
2022-10-04T12:55:56.730Z,0.70
2022-10-04T12:56:56.740Z,1.30
2022-10-04T12:57:56.711Z,0.90
2022-10-04T12:58:56.700Z,1.10
2022-10-04T12:59:56.691Z,1.30
2022-10-04T13:01:00.090Z,0.90
2022-10-04T13:01:57.710Z,1.00
2022-10-04T13:02:56.653Z,0.80
2022-10-04T13:03:56.643Z,0.80
2022-10-04T13:04:56.629Z,0.90
2022-10-04T13:05:56.624Z,0.90
2022-10-04T13:06:56.632Z,0.90
2022-10-04T13:07:56.602Z,1.40
2022-10-04T13:08:56.593Z,0.90
2022-10-04T13:10:22.476Z,0.90
2022-10-04T13:10:57.575Z,1.40
2022-10-04T13:11:56.587Z,0.90
2022-10-04T13:12:56.546Z,0.90
2022-10-04T13:13:56.557Z,1.00
2022-10-04T13:14:56.535Z,0.90
2022-10-04T13:17:57.498Z,1.10
2022-10-04T13:18:56.507Z,1.00
2022-10-04T13:19:56.495Z,1.00